sensor_id;sensor_type;location;lat;lon;timestamp;P1;durP1;ratioP1;P2;durP2;ratioP2
26391;SDS011;14572;43.120;1.178;2023-08-30T08:37:47;6.80;;;2.08;;
26391;SDS011;14572;43.120;1.178;2023-08-30T08:40:14;7.95;;;2.63;;
26391;SDS011;14572;43.120;1.178;2023-08-30T08:42:41;6.28;;;2.47;;
26391;SDS011;14572;43.120;1.178;2023-08-30T08:45:09;7.95;;;2.30;;
26391;SDS011;14572;43.120;1.178;2023-08-30T08:50:35;5.25;;;2.80;;
26391;SDS011;14572;43.120;1.178;2023-08-30T08:53:03;7.20;;;2.10;;
26391;SDS011;14572;43.120;1.178;2023-08-30T08:55:32;4.95;;;1.80;;
26391;SDS011;14572;43.120;1.178;2023-08-30T08:58:00;4.38;;;2.13;;
26391;SDS011;14572;43.120;1.178;2023-08-30T09:00:30;5.68;;;2.22;;
26391;SDS011;14572;43.120;1.178;2023-08-30T09:02:57;3.97;;;1.73;;
26391;SDS011;14572;43.120;1.178;2023-08-30T09:05:25;6.32;;;2.25;;
26391;SDS011;14572;43.120;1.178;2023-08-30T09:07:54;4.32;;;2.13;;
26391;SDS011;14572;43.120;1.178;2023-08-30T09:10:22;4.90;;;2.00;;
26391;SDS011;14572;43.120;1.178;2023-08-30T09:12:50;6.53;;;1.73;;
26391;SDS011;14572;43.120;1.178;2023-08-30T09:15:17;5.90;;;1.83;;
26391;SDS011;14572;43.120;1.178;2023-08-30T09:17:44;4.82;;;1.90;;
26391;SDS011;14572;43.120;1.178;2023-08-30T09:20:12;3.92;;;1.58;;
26391;SDS011;14572;43.120;1.178;2023-08-30T09:22:40;3.17;;;1.63;;
26391;SDS011;14572;43.120;1.178;2023-08-30T09:25:09;3.83;;;1.60;;
26391;SDS011;14572;43.120;1.178;2023-08-30T09:27:38;1.98;;;1.40;;
26391;SDS011;14572;43.120;1.178;2023-08-30T09:30:07;4.72;;;1.55;;
26391;SDS011;14572;43.120;1.178;2023-08-30T09:32:39;5.15;;;1.73;;
26391;SDS011;14572;43.120;1.178;2023-08-30T09:35:08;2.65;;;1.30;;
26391;SDS011;14572;43.120;1.178;2023-08-30T09:37:35;2.20;;;1.30;;
26391;SDS011;14572;43.120;1.178;2023-08-30T09:40:03;2.72;;;1.30;;
26391;SDS011;14572;43.120;1.178;2023-08-30T09:42:31;2.33;;;1.40;;
26391;SDS011;14572;43.120;1.178;2023-08-30T09:45:00;3.97;;;1.42;;
26391;SDS011;14572;43.120;1.178;2023-08-30T09:47:28;3.35;;;1.85;;
26391;SDS011;14572;43.120;1.178;2023-08-30T09:49:56;2.58;;;1.30;;
26391;SDS011;14572;43.120;1.178;2023-08-30T09:52:25;3.60;;;1.30;;
26391;SDS011;14572;43.120;1.178;2023-08-30T09:54:52;7.72;;;1.63;;
26391;SDS011;14572;43.120;1.178;2023-08-30T09:57:20;2.50;;;1.40;;
26391;SDS011;14572;43.120;1.178;2023-08-30T09:59:47;3.42;;;1.50;;
26391;SDS011;14572;43.120;1.178;2023-08-30T10:02:16;3.50;;;1.55;;
26391;SDS011;14572;43.120;1.178;2023-08-30T10:04:44;2.78;;;1.65;;
26391;SDS011;14572;43.120;1.178;2023-08-30T10:07:11;5.57;;;1.58;;
26391;SDS011;14572;43.120;1.178;2023-08-30T10:09:39;1.90;;;1.40;;
26391;SDS011;14572;43.120;1.178;2023-08-30T10:12:06;3.22;;;1.20;;
26391;SDS011;14572;43.120;1.178;2023-08-30T10:14:33;3.03;;;1.20;;
26391;SDS011;14572;43.120;1.178;2023-08-30T10:17:01;3.88;;;1.73;;
26391;SDS011;14572;43.120;1.178;2023-08-30T10:19:31;4.18;;;1.40;;
26391;SDS011;14572;43.120;1.178;2023-08-30T10:22:01;3.28;;;1.40;;
26391;SDS011;14572;43.120;1.178;2023-08-30T10:24:30;4.05;;;1.60;;
26391;SDS011;14572;43.120;1.178;2023-08-30T10:26:59;4.55;;;1.40;;
26391;SDS011;14572;43.120;1.178;2023-08-30T10:29:27;3.70;;;1.50;;
26391;SDS011;14572;43.120;1.178;2023-08-30T10:31:54;3.05;;;1.25;;
26391;SDS011;14572;43.120;1.178;2023-08-30T10:34:21;2.22;;;1.10;;
26391;SDS011;14572;43.120;1.178;2023-08-30T10:36:58;2.80;;;1.02;;
26391;SDS011;14572;43.120;1.178;2023-08-30T10:39:27;3.28;;;0.93;;
26391;SDS011;14572;43.120;1.178;2023-08-30T10:42:00;2.83;;;0.95;;
26391;SDS011;14572;43.120;1.178;2023-08-30T10:44:27;1.13;;;0.70;;
26391;SDS011;14572;43.120;1.178;2023-08-30T10:46:54;3.70;;;1.45;;
26391;SDS011;14572;43.120;1.178;2023-08-30T10:49:22;1.02;;;0.70;;
26391;SDS011;14572;43.120;1.178;2023-08-30T10:51:55;1.95;;;0.70;;
26391;SDS011;14572;43.120;1.178;2023-08-30T10:54:36;2.45;;;0.90;;
26391;SDS011;14572;43.120;1.178;2023-08-30T10:57:03;1.40;;;0.93;;
26391;SDS011;14572;43.120;1.178;2023-08-30T10:59:30;2.95;;;0.90;;
26391;SDS011;14572;43.120;1.178;2023-08-30T11:02:00;1.52;;;0.70;;
26391;SDS011;14572;43.120;1.178;2023-08-30T11:04:28;1.40;;;0.68;;
26391;SDS011;14572;43.120;1.178;2023-08-30T11:06:57;4.97;;;1.00;;
26391;SDS011;14572;43.120;1.178;2023-08-30T11:09:25;4.20;;;1.02;;
26391;SDS011;14572;43.120;1.178;2023-08-30T11:11:52;1.63;;;1.02;;
26391;SDS011;14572;43.120;1.178;2023-08-30T11:14:19;2.33;;;1.00;;
26391;SDS011;14572;43.120;1.178;2023-08-30T11:16:46;1.77;;;0.80;;
26391;SDS011;14572;43.120;1.178;2023-08-30T11:19:13;1.60;;;0.85;;
26391;SDS011;14572;43.120;1.178;2023-08-30T11:21:42;3.88;;;0.98;;
26391;SDS011;14572;43.120;1.178;2023-08-30T11:24:12;2.00;;;0.90;;
26391;SDS011;14572;43.120;1.178;2023-08-30T11:26:39;1.10;;;0.73;;
26391;SDS011;14572;43.120;1.178;2023-08-30T11:29:05;1.00;;;0.90;;
26391;SDS011;14572;43.120;1.178;2023-08-30T11:31:33;2.35;;;0.88;;
26391;SDS011;14572;43.120;1.178;2023-08-30T11:34:01;5.65;;;0.80;;
26391;SDS011;14572;43.120;1.178;2023-08-30T11:36:28;2.22;;;0.80;;
26391;SDS011;14572;43.120;1.178;2023-08-30T11:38:56;1.60;;;0.90;;
26391;SDS011;14572;43.120;1.178;2023-08-30T11:41:25;1.85;;;0.65;;
26391;SDS011;14572;43.120;1.178;2023-08-30T11:43:53;1.90;;;0.68;;
26391;SDS011;14572;43.120;1.178;2023-08-30T11:46:20;2.05;;;0.70;;
26391;SDS011;14572;43.120;1.178;2023-08-30T11:48:48;2.38;;;0.75;;
26391;SDS011;14572;43.120;1.178;2023-08-30T11:51:17;1.38;;;0.55;;
26391;SDS011;14572;43.120;1.178;2023-08-30T11:53:46;1.80;;;0.88;;
26391;SDS011;14572;43.120;1.178;2023-08-30T11:56:13;2.00;;;0.65;;
26391;SDS011;14572;43.120;1.178;2023-08-30T11:58:43;2.15;;;0.80;;
26391;SDS011;14572;43.120;1.178;2023-08-30T12:01:10;1.33;;;0.63;;
26391;SDS011;14572;43.120;1.178;2023-08-30T12:03:38;1.95;;;0.77;;
26391;SDS011;14572;43.120;1.178;2023-08-30T12:06:09;1.08;;;0.65;;
26391;SDS011;14572;43.120;1.178;2023-08-30T12:08:36;1.80;;;0.80;;
26391;SDS011;14572;43.120;1.178;2023-08-30T12:11:04;3.08;;;0.88;;
26391;SDS011;14572;43.120;1.178;2023-08-30T12:13:32;1.42;;;0.60;;
26391;SDS011;14572;43.120;1.178;2023-08-30T12:16:01;2.05;;;0.93;;
26391;SDS011;14572;43.120;1.178;2023-08-30T12:18:29;0.85;;;0.70;;
26391;SDS011;14572;43.120;1.178;2023-08-30T12:20:59;1.17;;;0.55;;
26391;SDS011;14572;43.120;1.178;2023-08-30T12:23:28;1.63;;;0.70;;
26391;SDS011;14572;43.120;1.178;2023-08-30T12:26:02;2.00;;;0.70;;
26391;SDS011;14572;43.120;1.178;2023-08-30T12:28:31;1.90;;;0.60;;
26391;SDS011;14572;43.120;1.178;2023-08-30T12:31:01;1.13;;;0.70;;
26391;SDS011;14572;43.120;1.178;2023-08-30T12:33:29;0.55;;;0.40;;
26391;SDS011;14572;43.120;1.178;2023-08-30T12:35:57;0.90;;;0.40;;
26391;SDS011;14572;43.120;1.178;2023-08-30T12:38:24;3.22;;;0.60;;
26391;SDS011;14572;43.120;1.178;2023-08-30T12:40:52;0.80;;;0.40;;
26391;SDS011;14572;43.120;1.178;2023-08-30T12:43:20;0.60;;;0.30;;
26391;SDS011;14572;43.120;1.178;2023-08-30T12:45:47;2.13;;;0.32;;
26391;SDS011;14572;43.120;1.178;2023-08-30T12:48:17;1.95;;;0.30;;
26391;SDS011;14572;43.120;1.178;2023-08-30T12:50:45;3.53;;;1.40;;
26391;SDS011;14572;43.120;1.178;2023-08-30T12:53:13;0.80;;;0.32;;
26391;SDS011;14572;43.120;1.178;2023-08-30T12:55:41;1.55;;;0.40;;
26391;SDS011;14572;43.120;1.178;2023-08-30T12:58:09;3.67;;;0.30;;
26391;SDS011;14572;43.120;1.178;2023-08-30T13:00:37;0.80;;;0.20;;
26391;SDS011;14572;43.120;1.178;2023-08-30T13:03:04;0.30;;;0.20;;
26391;SDS011;14572;43.120;1.178;2023-08-30T13:05:33;0.30;;;0.20;;
26391;SDS011;14572;43.120;1.178;2023-08-30T13:08:01;0.40;;;0.20;;
26391;SDS011;14572;43.120;1.178;2023-08-30T13:10:28;0.30;;;0.20;;
26391;SDS011;14572;43.120;1.178;2023-08-30T13:12:55;0.43;;;0.30;;
26391;SDS011;14572;43.120;1.178;2023-08-30T13:15:23;0.20;;;0.20;;
26391;SDS011;14572;43.120;1.178;2023-08-30T13:17:50;0.22;;;0.22;;
26391;SDS011;14572;43.120;1.178;2023-08-30T13:20:17;0.73;;;0.20;;
26391;SDS011;14572;43.120;1.178;2023-08-30T13:22:46;0.35;;;0.25;;
26391;SDS011;14572;43.120;1.178;2023-08-30T13:25:14;0.65;;;0.17;;
26391;SDS011;14572;43.120;1.178;2023-08-30T13:27:41;0.20;;;0.20;;
26391;SDS011;14572;43.120;1.178;2023-08-30T13:30:08;5.07;;;0.20;;
26391;SDS011;14572;43.120;1.178;2023-08-30T13:32:35;1.08;;;0.30;;
26391;SDS011;14572;43.120;1.178;2023-08-30T13:35:03;0.20;;;0.20;;
26391;SDS011;14572;43.120;1.178;2023-08-30T13:37:30;0.20;;;0.20;;
26391;SDS011;14572;43.120;1.178;2023-08-30T13:40:00;0.80;;;0.70;;
26391;SDS011;14572;43.120;1.178;2023-08-30T13:42:31;0.45;;;0.40;;
26391;SDS011;14572;43.120;1.178;2023-08-30T13:44:58;2.35;;;0.80;;
26391;SDS011;14572;43.120;1.178;2023-08-30T13:47:25;0.80;;;0.63;;
26391;SDS011;14572;43.120;1.178;2023-08-30T13:49:52;1.00;;;0.55;;
26391;SDS011;14572;43.120;1.178;2023-08-30T13:52:19;0.65;;;0.60;;
26391;SDS011;14572;43.120;1.178;2023-08-30T13:54:46;0.95;;;0.75;;
26391;SDS011;14572;43.120;1.178;2023-08-30T13:57:16;1.75;;;0.80;;
26391;SDS011;14572;43.120;1.178;2023-08-30T13:59:44;1.92;;;1.00;;
26391;SDS011;14572;43.120;1.178;2023-08-30T14:02:11;1.00;;;0.77;;
26391;SDS011;14572;43.120;1.178;2023-08-30T14:04:38;0.88;;;0.80;;
26391;SDS011;14572;43.120;1.178;2023-08-30T14:07:05;2.40;;;1.00;;
26391;SDS011;14572;43.120;1.178;2023-08-30T14:09:32;0.88;;;0.65;;
26391;SDS011;14572;43.120;1.178;2023-08-30T14:11:59;1.10;;;1.00;;
26391;SDS011;14572;43.120;1.178;2023-08-30T14:14:30;1.00;;;0.82;;
26391;SDS011;14572;43.120;1.178;2023-08-30T14:16:57;1.20;;;1.00;;
26391;SDS011;14572;43.120;1.178;2023-08-30T14:19:24;1.20;;;1.10;;
26391;SDS011;14572;43.120;1.178;2023-08-30T14:21:51;4.68;;;1.55;;
26391;SDS011;14572;43.120;1.178;2023-08-30T14:24:21;1.92;;;1.30;;
26391;SDS011;14572;43.120;1.178;2023-08-30T14:26:48;1.52;;;1.40;;
26391;SDS011;14572;43.120;1.178;2023-08-30T14:29:15;1.55;;;1.40;;
26391;SDS011;14572;43.120;1.178;2023-08-30T14:31:47;1.98;;;1.50;;
26391;SDS011;14572;43.120;1.178;2023-08-30T14:34:15;2.10;;;1.80;;
26391;SDS011;14572;43.120;1.178;2023-08-30T14:36:42;1.95;;;1.75;;
26391;SDS011;14572;43.120;1.178;2023-08-30T14:39:11;1.77;;;1.67;;
26391;SDS011;14572;43.120;1.178;2023-08-30T14:41:38;1.60;;;1.50;;
26391;SDS011;14572;43.120;1.178;2023-08-30T14:44:05;3.20;;;1.20;;
26391;SDS011;14572;43.120;1.178;2023-08-30T14:46:33;3.42;;;1.42;;
26391;SDS011;14572;43.120;1.178;2023-08-30T14:49:02;1.40;;;1.30;;
26391;SDS011;14572;43.120;1.178;2023-08-30T14:51:29;1.83;;;1.52;;
26391;SDS011;14572;43.120;1.178;2023-08-30T14:53:56;1.20;;;1.10;;
26391;SDS011;14572;43.120;1.178;2023-08-30T14:56:23;1.50;;;1.40;;
26391;SDS011;14572;43.120;1.178;2023-08-30T14:58:50;2.75;;;1.50;;
26391;SDS011;14572;43.120;1.178;2023-08-30T15:01:17;1.63;;;1.25;;
26391;SDS011;14572;43.120;1.178;2023-08-30T15:03:45;2.60;;;1.42;;
26391;SDS011;14572;43.120;1.178;2023-08-30T15:06:14;1.30;;;1.20;;
26391;SDS011;14572;43.120;1.178;2023-08-30T15:08:41;1.48;;;1.38;;
26391;SDS011;14572;43.120;1.178;2023-08-30T15:11:08;1.63;;;1.52;;
26391;SDS011;14572;43.120;1.178;2023-08-30T15:13:35;1.80;;;1.70;;
26391;SDS011;14572;43.120;1.178;2023-08-30T15:16:03;1.75;;;1.65;;
26391;SDS011;14572;43.120;1.178;2023-08-30T15:18:30;2.15;;;1.70;;
26391;SDS011;14572;43.120;1.178;2023-08-30T15:20:57;1.45;;;1.35;;
26391;SDS011;14572;43.120;1.178;2023-08-30T15:23:26;2.08;;;1.70;;
26391;SDS011;14572;43.120;1.178;2023-08-30T15:25:53;3.65;;;1.48;;
26391;SDS011;14572;43.120;1.178;2023-08-30T15:28:20;2.30;;;1.65;;
26391;SDS011;14572;43.120;1.178;2023-08-30T15:30:47;1.65;;;1.55;;
26391;SDS011;14572;43.120;1.178;2023-08-30T15:33:16;1.80;;;1.70;;
26391;SDS011;14572;43.120;1.178;2023-08-30T15:35:43;2.17;;;1.60;;
26391;SDS011;14572;43.120;1.178;2023-08-30T15:38:12;2.20;;;2.00;;
26391;SDS011;14572;43.120;1.178;2023-08-30T15:40:40;1.95;;;1.60;;
26391;SDS011;14572;43.120;1.178;2023-08-30T15:43:08;1.20;;;1.05;;
26391;SDS011;14572;43.120;1.178;2023-08-30T15:45:35;1.88;;;1.50;;
26391;SDS011;14572;43.120;1.178;2023-08-30T15:48:03;1.52;;;1.20;;
26391;SDS011;14572;43.120;1.178;2023-08-30T15:50:30;0.82;;;0.80;;
26391;SDS011;14572;43.120;1.178;2023-08-30T15:52:58;1.10;;;1.00;;
26391;SDS011;14572;43.120;1.178;2023-08-30T15:55:25;1.17;;;0.95;;
26391;SDS011;14572;43.120;1.178;2023-08-30T15:57:55;0.98;;;0.90;;
26391;SDS011;14572;43.120;1.178;2023-08-30T16:00:22;1.40;;;1.10;;
26391;SDS011;14572;43.120;1.178;2023-08-30T16:02:50;3.22;;;1.20;;
26391;SDS011;14572;43.120;1.178;2023-08-30T16:05:17;1.40;;;1.13;;
26391;SDS011;14572;43.120;1.178;2023-08-30T16:07:45;1.80;;;1.00;;
26391;SDS011;14572;43.120;1.178;2023-08-30T16:10:12;1.08;;;0.90;;
26391;SDS011;14572;43.120;1.178;2023-08-30T16:12:39;1.55;;;0.85;;
26391;SDS011;14572;43.120;1.178;2023-08-30T16:15:08;2.53;;;0.70;;
26391;SDS011;14572;43.120;1.178;2023-08-30T16:17:36;1.10;;;0.75;;
26391;SDS011;14572;43.120;1.178;2023-08-30T16:20:03;1.45;;;0.73;;
26391;SDS011;14572;43.120;1.178;2023-08-30T16:22:31;2.92;;;0.73;;
26391;SDS011;14572;43.120;1.178;2023-08-30T16:24:58;1.92;;;0.95;;
26391;SDS011;14572;43.120;1.178;2023-08-30T16:27:26;0.70;;;0.63;;
26391;SDS011;14572;43.120;1.178;2023-08-30T16:29:53;0.50;;;0.50;;
26391;SDS011;14572;43.120;1.178;2023-08-30T16:32:22;0.50;;;0.50;;
26391;SDS011;14572;43.120;1.178;2023-08-30T16:34:49;1.05;;;0.65;;
26391;SDS011;14572;43.120;1.178;2023-08-30T16:37:16;0.40;;;0.40;;
26391;SDS011;14572;43.120;1.178;2023-08-30T16:39:43;0.77;;;0.60;;
26391;SDS011;14572;43.120;1.178;2023-08-30T16:42:10;2.50;;;0.60;;
26391;SDS011;14572;43.120;1.178;2023-08-30T16:44:38;2.35;;;0.28;;
26391;SDS011;14572;43.120;1.178;2023-08-30T16:47:05;0.45;;;0.20;;
26391;SDS011;14572;43.120;1.178;2023-08-30T16:49:33;2.53;;;0.20;;
26391;SDS011;14572;43.120;1.178;2023-08-30T16:52:01;0.20;;;0.20;;
26391;SDS011;14572;43.120;1.178;2023-08-30T16:54:28;1.27;;;0.20;;
26391;SDS011;14572;43.120;1.178;2023-08-30T16:56:55;0.40;;;0.10;;
26391;SDS011;14572;43.120;1.178;2023-08-30T16:59:24;3.13;;;0.20;;
26391;SDS011;14572;43.120;1.178;2023-08-30T17:01:51;0.30;;;0.20;;
26391;SDS011;14572;43.120;1.178;2023-08-30T17:04:18;0.88;;;0.40;;
26391;SDS011;14572;43.120;1.178;2023-08-30T17:06:47;1.40;;;0.30;;
26391;SDS011;14572;43.120;1.178;2023-08-30T17:09:15;0.75;;;0.40;;
26391;SDS011;14572;43.120;1.178;2023-08-30T17:11:42;3.28;;;0.32;;
26391;SDS011;14572;43.120;1.178;2023-08-30T17:14:10;2.58;;;0.47;;
26391;SDS011;14572;43.120;1.178;2023-08-30T17:16:37;3.67;;;0.50;;
26391;SDS011;14572;43.120;1.178;2023-08-30T17:19:05;2.70;;;0.55;;
26391;SDS011;14572;43.120;1.178;2023-08-30T17:21:33;2.20;;;0.70;;
26391;SDS011;14572;43.120;1.178;2023-08-30T17:24:01;4.05;;;0.75;;
26391;SDS011;14572;43.120;1.178;2023-08-30T17:26:29;2.10;;;0.70;;
26391;SDS011;14572;43.120;1.178;2023-08-30T17:28:56;2.83;;;1.00;;
26391;SDS011;14572;43.120;1.178;2023-08-30T17:31:23;2.22;;;0.60;;
26391;SDS011;14572;43.120;1.178;2023-08-30T17:33:52;2.92;;;0.70;;
26391;SDS011;14572;43.120;1.178;2023-08-30T17:36:19;3.90;;;0.65;;
26391;SDS011;14572;43.120;1.178;2023-08-30T17:38:46;3.42;;;0.90;;
26391;SDS011;14572;43.120;1.178;2023-08-30T17:41:16;2.30;;;0.70;;
26391;SDS011;14572;43.120;1.178;2023-08-30T17:43:43;5.07;;;0.70;;
26391;SDS011;14572;43.120;1.178;2023-08-30T17:46:10;2.45;;;0.75;;
26391;SDS011;14572;43.120;1.178;2023-08-30T17:48:37;3.67;;;0.88;;
26391;SDS011;14572;43.120;1.178;2023-08-30T17:51:04;2.40;;;0.70;;
26391;SDS011;14572;43.120;1.178;2023-08-30T17:53:32;2.63;;;1.05;;
26391;SDS011;14572;43.120;1.178;2023-08-30T17:56:00;2.08;;;0.57;;
26391;SDS011;14572;43.120;1.178;2023-08-30T17:58:30;1.15;;;0.65;;
26391;SDS011;14572;43.120;1.178;2023-08-30T18:00:57;3.22;;;0.70;;
26391;SDS011;14572;43.120;1.178;2023-08-30T18:03:24;2.90;;;0.50;;
26391;SDS011;14572;43.120;1.178;2023-08-30T18:05:58;3.13;;;0.70;;
26391;SDS011;14572;43.120;1.178;2023-08-30T18:08:25;2.22;;;1.10;;
26391;SDS011;14572;43.120;1.178;2023-08-30T18:10:52;2.70;;;0.80;;
26391;SDS011;14572;43.120;1.178;2023-08-30T18:13:20;3.25;;;0.70;;
26391;SDS011;14572;43.120;1.178;2023-08-30T18:15:48;4.90;;;0.70;;
26391;SDS011;14572;43.120;1.178;2023-08-30T18:18:15;1.67;;;0.65;;
26391;SDS011;14572;43.120;1.178;2023-08-30T18:20:42;3.28;;;0.75;;
26391;SDS011;14572;43.120;1.178;2023-08-30T18:23:10;2.42;;;0.70;;
26391;SDS011;14572;43.120;1.178;2023-08-30T18:25:37;2.00;;;0.80;;
26391;SDS011;14572;43.120;1.178;2023-08-30T18:28:05;3.10;;;0.88;;
26391;SDS011;14572;43.120;1.178;2023-08-30T18:30:32;4.03;;;0.75;;
26391;SDS011;14572;43.120;1.178;2023-08-30T18:33:01;3.88;;;1.05;;
26391;SDS011;14572;43.120;1.178;2023-08-30T18:35:29;3.13;;;0.75;;
26391;SDS011;14572;43.120;1.178;2023-08-30T18:37:57;2.70;;;0.85;;
26391;SDS011;14572;43.120;1.178;2023-08-30T18:40:28;4.18;;;1.08;;
26391;SDS011;14572;43.120;1.178;2023-08-30T18:42:55;4.32;;;1.17;;
26391;SDS011;14572;43.120;1.178;2023-08-30T18:45:23;3.70;;;1.23;;
26391;SDS011;14572;43.120;1.178;2023-08-30T18:47:50;6.10;;;1.27;;
26391;SDS011;14572;43.120;1.178;2023-08-30T18:50:18;2.47;;;1.20;;
26391;SDS011;14572;43.120;1.178;2023-08-30T18:52:46;5.57;;;1.20;;
26391;SDS011;14572;43.120;1.178;2023-08-30T18:55:14;3.08;;;1.40;;
26391;SDS011;14572;43.120;1.178;2023-08-30T18:57:41;3.60;;;1.40;;
